sensor_id;sensor_type;location;lat;lon;timestamp;temperature;humidity
64226;DHT22;50545;56.064;26.178;2023-06-26T00:00:28;12.20;99.90
64226;DHT22;50545;56.064;26.178;2023-06-26T00:02:57;12.20;99.90
64226;DHT22;50545;56.064;26.178;2023-06-26T00:05:26;12.10;99.90
64226;DHT22;50545;56.064;26.178;2023-06-26T00:07:56;12.10;99.90
64226;DHT22;50545;56.064;26.178;2023-06-26T00:10:30;12.10;99.90
64226;DHT22;50545;56.064;26.178;2023-06-26T00:12:59;12.00;99.90
64226;DHT22;50545;56.064;26.178;2023-06-26T00:15:28;12.00;99.90
64226;DHT22;50545;56.064;26.178;2023-06-26T00:18:00;12.00;99.90
64226;DHT22;50545;56.064;26.178;2023-06-26T00:20:28;12.00;99.90
64226;DHT22;50545;56.064;26.178;2023-06-26T00:22:57;11.90;99.90
64226;DHT22;50545;56.064;26.178;2023-06-26T00:25:27;11.90;99.90
64226;DHT22;50545;56.064;26.178;2023-06-26T00:27:55;11.90;99.90
64226;DHT22;50545;56.064;26.178;2023-06-26T00:30:24;11.90;99.90
64226;DHT22;50545;56.064;26.178;2023-06-26T00:32:53;11.90;99.90
64226;DHT22;50545;56.064;26.178;2023-06-26T00:35:22;11.90;99.90
64226;DHT22;50545;56.064;26.178;2023-06-26T00:37:50;11.80;99.90
64226;DHT22;50545;56.064;26.178;2023-06-26T00:40:19;11.80;99.90
64226;DHT22;50545;56.064;26.178;2023-06-26T00:42:48;11.80;99.90
64226;DHT22;50545;56.064;26.178;2023-06-26T00:45:17;11.70;99.90
64226;DHT22;50545;56.064;26.178;2023-06-26T00:47:56;11.70;99.90
64226;DHT22;50545;56.064;26.178;2023-06-26T00:50:25;11.60;99.90
64226;DHT22;50545;56.064;26.178;2023-06-26T00:52:55;11.50;99.90
64226;DHT22;50545;56.064;26.178;2023-06-26T00:55:30;11.50;99.90
64226;DHT22;50545;56.064;26.178;2023-06-26T00:57:58;11.40;99.90
64226;DHT22;50545;56.064;26.178;2023-06-26T01:00:28;11.40;99.90
64226;DHT22;50545;56.064;26.178;2023-06-26T01:02:57;11.30;99.90
64226;DHT22;50545;56.064;26.178;2023-06-26T01:05:28;11.30;99.90
64226;DHT22;50545;56.064;26.178;2023-06-26T01:07:57;11.30;99.90
64226;DHT22;50545;56.064;26.178;2023-06-26T01:10:25;11.20;99.90
64226;DHT22;50545;56.064;26.178;2023-06-26T01:12:57;11.20;99.90
64226;DHT22;50545;56.064;26.178;2023-06-26T01:15:26;11.20;99.90
64226;DHT22;50545;56.064;26.178;2023-06-26T01:17:57;11.20;99.90
64226;DHT22;50545;56.064;26.178;2023-06-26T01:20:28;11.10;99.90
64226;DHT22;50545;56.064;26.178;2023-06-26T01:23:07;11.10;99.90
64226;DHT22;50545;56.064;26.178;2023-06-26T01:28:29;11.00;99.90
64226;DHT22;50545;56.064;26.178;2023-06-26T01:30:58;11.00;99.90
64226;DHT22;50545;56.064;26.178;2023-06-26T01:33:25;10.90;99.90
64226;DHT22;50545;56.064;26.178;2023-06-26T01:35:53;10.90;99.90
64226;DHT22;50545;56.064;26.178;2023-06-26T01:38:21;10.80;99.90
64226;DHT22;50545;56.064;26.178;2023-06-26T01:40:50;10.80;99.90
64226;DHT22;50545;56.064;26.178;2023-06-26T01:43:39;10.80;99.90
64226;DHT22;50545;56.064;26.178;2023-06-26T01:49:13;10.70;99.90
64226;DHT22;50545;56.064;26.178;2023-06-26T01:51:47;10.70;99.90
64226;DHT22;50545;56.064;26.178;2023-06-26T01:54:18;10.70;99.90
64226;DHT22;50545;56.064;26.178;2023-06-26T01:56:49;10.70;99.90
64226;DHT22;50545;56.064;26.178;2023-06-26T01:59:18;10.70;99.90
64226;DHT22;50545;56.064;26.178;2023-06-26T02:01:46;10.70;99.90
64226;DHT22;50545;56.064;26.178;2023-06-26T02:04:14;10.70;99.90
64226;DHT22;50545;56.064;26.178;2023-06-26T02:06:41;10.70;99.90
64226;DHT22;50545;56.064;26.178;2023-06-26T02:09:08;10.70;99.90
64226;DHT22;50545;56.064;26.178;2023-06-26T02:11:36;10.70;99.90
64226;DHT22;50545;56.064;26.178;2023-06-26T02:14:16;10.70;99.90
64226;DHT22;50545;56.064;26.178;2023-06-26T02:16:43;10.80;99.90
64226;DHT22;50545;56.064;26.178;2023-06-26T02:19:10;10.90;99.90
64226;DHT22;50545;56.064;26.178;2023-06-26T02:21:38;10.90;99.90
64226;DHT22;50545;56.064;26.178;2023-06-26T02:24:05;10.90;99.90
64226;DHT22;50545;56.064;26.178;2023-06-26T02:26:33;10.90;99.90
64226;DHT22;50545;56.064;26.178;2023-06-26T02:29:00;10.80;99.90
64226;DHT22;50545;56.064;26.178;2023-06-26T02:31:27;10.80;99.90
64226;DHT22;50545;56.064;26.178;2023-06-26T02:33:54;10.80;99.90
64226;DHT22;50545;56.064;26.178;2023-06-26T02:36:22;10.80;99.90
64226;DHT22;50545;56.064;26.178;2023-06-26T02:38:51;10.80;99.90
64226;DHT22;50545;56.064;26.178;2023-06-26T02:41:19;10.90;99.90
64226;DHT22;50545;56.064;26.178;2023-06-26T02:43:46;11.00;99.90
64226;DHT22;50545;56.064;26.178;2023-06-26T02:46:15;11.00;99.90
64226;DHT22;50545;56.064;26.178;2023-06-26T02:48:44;11.10;99.90
64226;DHT22;50545;56.064;26.178;2023-06-26T02:51:13;11.20;99.90
64226;DHT22;50545;56.064;26.178;2023-06-26T02:53:40;11.40;99.90
64226;DHT22;50545;56.064;26.178;2023-06-26T02:56:08;11.50;99.90
64226;DHT22;50545;56.064;26.178;2023-06-26T02:58:35;11.60;99.90
64226;DHT22;50545;56.064;26.178;2023-06-26T03:01:02;11.60;99.90
64226;DHT22;50545;56.064;26.178;2023-06-26T03:03:30;11.70;99.90
64226;DHT22;50545;56.064;26.178;2023-06-26T03:05:57;11.80;99.90
64226;DHT22;50545;56.064;26.178;2023-06-26T03:08:25;11.80;99.90
64226;DHT22;50545;56.064;26.178;2023-06-26T03:10:55;11.90;99.90
64226;DHT22;50545;56.064;26.178;2023-06-26T03:13:22;11.90;99.90
64226;DHT22;50545;56.064;26.178;2023-06-26T03:15:49;11.90;99.90
64226;DHT22;50545;56.064;26.178;2023-06-26T03:18:18;11.90;99.90
64226;DHT22;50545;56.064;26.178;2023-06-26T03:20:46;12.00;99.90
64226;DHT22;50545;56.064;26.178;2023-06-26T03:23:17;12.00;99.90
64226;DHT22;50545;56.064;26.178;2023-06-26T03:25:44;12.20;99.90
64226;DHT22;50545;56.064;26.178;2023-06-26T03:28:12;12.30;99.90
64226;DHT22;50545;56.064;26.178;2023-06-26T03:30:39;12.40;99.90
64226;DHT22;50545;56.064;26.178;2023-06-26T03:33:07;12.50;99.90
64226;DHT22;50545;56.064;26.178;2023-06-26T03:35:34;12.60;99.90
64226;DHT22;50545;56.064;26.178;2023-06-26T03:38:04;12.70;99.90
64226;DHT22;50545;56.064;26.178;2023-06-26T03:40:32;12.90;99.90
64226;DHT22;50545;56.064;26.178;2023-06-26T03:43:01;12.90;99.90
64226;DHT22;50545;56.064;26.178;2023-06-26T03:45:30;13.10;99.90
64226;DHT22;50545;56.064;26.178;2023-06-26T03:48:01;13.20;99.90
64226;DHT22;50545;56.064;26.178;2023-06-26T03:50:30;13.30;99.90
64226;DHT22;50545;56.064;26.178;2023-06-26T03:52:59;13.40;99.90
64226;DHT22;50545;56.064;26.178;2023-06-26T03:55:26;13.50;99.90
64226;DHT22;50545;56.064;26.178;2023-06-26T03:57:53;13.60;99.90
64226;DHT22;50545;56.064;26.178;2023-06-26T04:00:21;13.60;99.90
64226;DHT22;50545;56.064;26.178;2023-06-26T04:02:48;13.80;99.90
64226;DHT22;50545;56.064;26.178;2023-06-26T04:05:15;13.90;99.90
64226;DHT22;50545;56.064;26.178;2023-06-26T04:07:44;14.00;99.90
64226;DHT22;50545;56.064;26.178;2023-06-26T04:10:12;14.10;99.90
64226;DHT22;50545;56.064;26.178;2023-06-26T04:12:39;14.20;99.90
64226;DHT22;50545;56.064;26.178;2023-06-26T04:15:07;14.30;99.90
64226;DHT22;50545;56.064;26.178;2023-06-26T04:17:34;14.30;99.90
64226;DHT22;50545;56.064;26.178;2023-06-26T04:20:02;14.40;99.90
64226;DHT22;50545;56.064;26.178;2023-06-26T04:22:33;14.60;99.90
64226;DHT22;50545;56.064;26.178;2023-06-26T04:25:02;14.60;99.90
64226;DHT22;50545;56.064;26.178;2023-06-26T04:27:30;14.60;99.90
64226;DHT22;50545;56.064;26.178;2023-06-26T04:29:57;14.60;99.90
64226;DHT22;50545;56.064;26.178;2023-06-26T04:32:24;14.60;99.90
64226;DHT22;50545;56.064;26.178;2023-06-26T04:34:52;14.70;99.90
64226;DHT22;50545;56.064;26.178;2023-06-26T04:37:19;14.70;99.90
64226;DHT22;50545;56.064;26.178;2023-06-26T04:39:47;14.80;99.90
64226;DHT22;50545;56.064;26.178;2023-06-26T04:42:14;14.90;99.90
64226;DHT22;50545;56.064;26.178;2023-06-26T04:44:42;15.00;99.90
64226;DHT22;50545;56.064;26.178;2023-06-26T04:47:09;15.10;99.90
64226;DHT22;50545;56.064;26.178;2023-06-26T04:49:36;15.20;99.90
64226;DHT22;50545;56.064;26.178;2023-06-26T04:52:05;15.30;99.90
64226;DHT22;50545;56.064;26.178;2023-06-26T04:54:32;15.50;99.50
64226;DHT22;50545;56.064;26.178;2023-06-26T04:56:59;15.60;99.90
64226;DHT22;50545;56.064;26.178;2023-06-26T04:59:27;15.60;99.70
64226;DHT22;50545;56.064;26.178;2023-06-26T05:01:54;15.70;99.30
64226;DHT22;50545;56.064;26.178;2023-06-26T05:04:21;15.80;99.20
64226;DHT22;50545;56.064;26.178;2023-06-26T05:06:49;15.80;99.00
64226;DHT22;50545;56.064;26.178;2023-06-26T05:09:17;15.90;98.70
64226;DHT22;50545;56.064;26.178;2023-06-26T05:11:44;15.90;98.40
64226;DHT22;50545;56.064;26.178;2023-06-26T05:14:11;15.90;98.50
64226;DHT22;50545;56.064;26.178;2023-06-26T05:16:40;15.90;98.70
64226;DHT22;50545;56.064;26.178;2023-06-26T05:19:09;16.00;98.90
64226;DHT22;50545;56.064;26.178;2023-06-26T05:21:39;16.10;98.90
64226;DHT22;50545;56.064;26.178;2023-06-26T05:24:09;16.10;98.40
64226;DHT22;50545;56.064;26.178;2023-06-26T05:26:41;16.20;98.20
64226;DHT22;50545;56.064;26.178;2023-06-26T05:29:08;16.30;98.20
64226;DHT22;50545;56.064;26.178;2023-06-26T05:31:43;16.30;98.40
64226;DHT22;50545;56.064;26.178;2023-06-26T05:34:13;16.40;97.50
64226;DHT22;50545;56.064;26.178;2023-06-26T05:36:43;16.50;97.30
64226;DHT22;50545;56.064;26.178;2023-06-26T05:39:12;16.60;97.00
64226;DHT22;50545;56.064;26.178;2023-06-26T05:41:39;16.70;97.20
64226;DHT22;50545;56.064;26.178;2023-06-26T05:44:07;16.80;96.80
64226;DHT22;50545;56.064;26.178;2023-06-26T05:46:36;16.90;96.10
64226;DHT22;50545;56.064;26.178;2023-06-26T05:49:03;17.00;95.90
64226;DHT22;50545;56.064;26.178;2023-06-26T05:51:31;17.10;95.70
64226;DHT22;50545;56.064;26.178;2023-06-26T05:53:59;17.30;95.40
64226;DHT22;50545;56.064;26.178;2023-06-26T05:56:27;17.40;95.20
64226;DHT22;50545;56.064;26.178;2023-06-26T05:58:56;17.60;94.40
64226;DHT22;50545;56.064;26.178;2023-06-26T06:01:24;17.70;94.00
64226;DHT22;50545;56.064;26.178;2023-06-26T06:03:52;17.90;94.70
64226;DHT22;50545;56.064;26.178;2023-06-26T06:06:19;18.00;94.10
64226;DHT22;50545;56.064;26.178;2023-06-26T06:08:48;18.20;93.40
64226;DHT22;50545;56.064;26.178;2023-06-26T06:11:15;18.30;92.60
64226;DHT22;50545;56.064;26.178;2023-06-26T06:13:43;18.40;92.10
64226;DHT22;50545;56.064;26.178;2023-06-26T06:16:10;18.60;91.00
64226;DHT22;50545;56.064;26.178;2023-06-26T06:18:37;18.70;90.20
64226;DHT22;50545;56.064;26.178;2023-06-26T06:21:07;18.80;90.40
64226;DHT22;50545;56.064;26.178;2023-06-26T06:23:35;18.90;91.20
64226;DHT22;50545;56.064;26.178;2023-06-26T06:26:02;19.00;89.60
64226;DHT22;50545;56.064;26.178;2023-06-26T06:28:29;19.10;90.20
64226;DHT22;50545;56.064;26.178;2023-06-26T06:30:56;19.20;90.60
64226;DHT22;50545;56.064;26.178;2023-06-26T06:33:23;19.20;89.90
64226;DHT22;50545;56.064;26.178;2023-06-26T06:35:50;19.20;90.20
64226;DHT22;50545;56.064;26.178;2023-06-26T06:38:18;19.30;88.90
64226;DHT22;50545;56.064;26.178;2023-06-26T06:40:45;19.40;88.30
64226;DHT22;50545;56.064;26.178;2023-06-26T06:43:12;19.50;89.00
64226;DHT22;50545;56.064;26.178;2023-06-26T06:45:39;19.60;88.40
64226;DHT22;50545;56.064;26.178;2023-06-26T06:48:07;19.80;85.70
64226;DHT22;50545;56.064;26.178;2023-06-26T06:50:34;19.90;87.80
64226;DHT22;50545;56.064;26.178;2023-06-26T06:53:02;20.10;85.90
64226;DHT22;50545;56.064;26.178;2023-06-26T06:55:29;20.20;86.40
64226;DHT22;50545;56.064;26.178;2023-06-26T06:57:56;20.30;85.60
64226;DHT22;50545;56.064;26.178;2023-06-26T07:00:24;20.40;85.30
64226;DHT22;50545;56.064;26.178;2023-06-26T07:02:51;20.60;86.50
64226;DHT22;50545;56.064;26.178;2023-06-26T07:05:18;20.70;82.40
64226;DHT22;50545;56.064;26.178;2023-06-26T07:07:46;20.60;81.60
64226;DHT22;50545;56.064;26.178;2023-06-26T07:10:13;20.70;84.40
64226;DHT22;50545;56.064;26.178;2023-06-26T07:12:41;20.80;79.50
64226;DHT22;50545;56.064;26.178;2023-06-26T07:15:08;20.90;81.00
64226;DHT22;50545;56.064;26.178;2023-06-26T07:17:35;20.90;78.80
64226;DHT22;50545;56.064;26.178;2023-06-26T07:20:05;20.90;78.80
64226;DHT22;50545;56.064;26.178;2023-06-26T07:22:37;21.00;77.80
64226;DHT22;50545;56.064;26.178;2023-06-26T07:25:05;21.00;79.40
64226;DHT22;50545;56.064;26.178;2023-06-26T07:27:37;21.10;80.40
64226;DHT22;50545;56.064;26.178;2023-06-26T07:30:04;21.30;81.90
64226;DHT22;50545;56.064;26.178;2023-06-26T07:32:31;21.60;79.20
64226;DHT22;50545;56.064;26.178;2023-06-26T07:34:59;21.70;74.40
64226;DHT22;50545;56.064;26.178;2023-06-26T07:37:26;21.80;72.00
64226;DHT22;50545;56.064;26.178;2023-06-26T07:39:53;21.90;76.60
64226;DHT22;50545;56.064;26.178;2023-06-26T07:42:20;22.10;76.00
64226;DHT22;50545;56.064;26.178;2023-06-26T07:44:48;22.30;68.70
64226;DHT22;50545;56.064;26.178;2023-06-26T07:47:15;22.30;71.00
64226;DHT22;50545;56.064;26.178;2023-06-26T07:49:43;22.40;70.80
64226;DHT22;50545;56.064;26.178;2023-06-26T07:52:10;22.50;70.50
64226;DHT22;50545;56.064;26.178;2023-06-26T07:54:38;22.60;70.00
64226;DHT22;50545;56.064;26.178;2023-06-26T07:57:05;22.60;71.80
64226;DHT22;50545;56.064;26.178;2023-06-26T07:59:35;22.70;73.10
64226;DHT22;50545;56.064;26.178;2023-06-26T08:02:03;22.60;70.70
64226;DHT22;50545;56.064;26.178;2023-06-26T08:04:31;22.30;73.40
64226;DHT22;50545;56.064;26.178;2023-06-26T08:06:59;22.10;73.20
64226;DHT22;50545;56.064;26.178;2023-06-26T08:09:28;21.80;72.90
64226;DHT22;50545;56.064;26.178;2023-06-26T08:11:56;21.50;73.40
64226;DHT22;50545;56.064;26.178;2023-06-26T08:14:24;21.10;74.40
64226;DHT22;50545;56.064;26.178;2023-06-26T08:16:51;20.90;76.00
64226;DHT22;50545;56.064;26.178;2023-06-26T08:19:18;20.70;77.50
64226;DHT22;50545;56.064;26.178;2023-06-26T08:21:46;20.60;75.40
64226;DHT22;50545;56.064;26.178;2023-06-26T08:24:14;20.60;77.50
64226;DHT22;50545;56.064;26.178;2023-06-26T08:26:45;20.70;74.90
64226;DHT22;50545;56.064;26.178;2023-06-26T08:29:13;21.00;74.80
64226;DHT22;50545;56.064;26.178;2023-06-26T08:31:41;21.10;73.10
64226;DHT22;50545;56.064;26.178;2023-06-26T08:34:09;21.50;76.00
64226;DHT22;50545;56.064;26.178;2023-06-26T08:36:36;21.80;74.30
64226;DHT22;50545;56.064;26.178;2023-06-26T08:39:03;22.10;73.70
64226;DHT22;50545;56.064;26.178;2023-06-26T08:41:32;22.30;71.40
64226;DHT22;50545;56.064;26.178;2023-06-26T08:43:59;22.50;70.60
64226;DHT22;50545;56.064;26.178;2023-06-26T08:46:28;22.60;69.30
64226;DHT22;50545;56.064;26.178;2023-06-26T08:49:08;22.50;70.60
64226;DHT22;50545;56.064;26.178;2023-06-26T08:51:42;22.30;70.90
64226;DHT22;50545;56.064;26.178;2023-06-26T08:54:14;22.00;70.50
64226;DHT22;50545;56.064;26.178;2023-06-26T08:56:44;21.80;70.90
64226;DHT22;50545;56.064;26.178;2023-06-26T08:59:13;21.90;72.50
64226;DHT22;50545;56.064;26.178;2023-06-26T09:01:41;22.10;70.80
64226;DHT22;50545;56.064;26.178;2023-06-26T09:04:09;22.30;70.60
64226;DHT22;50545;56.064;26.178;2023-06-26T09:06:36;22.70;72.70
64226;DHT22;50545;56.064;26.178;2023-06-26T09:09:03;23.00;68.60
64226;DHT22;50545;56.064;26.178;2023-06-26T09:11:31;23.10;66.80
64226;DHT22;50545;56.064;26.178;2023-06-26T09:13:59;22.90;67.90
64226;DHT22;50545;56.064;26.178;2023-06-26T09:16:26;22.80;67.80
64226;DHT22;50545;56.064;26.178;2023-06-26T09:18:55;22.60;67.10
64226;DHT22;50545;56.064;26.178;2023-06-26T09:21:23;22.50;70.10
64226;DHT22;50545;56.064;26.178;2023-06-26T09:23:53;22.50;70.10
64226;DHT22;50545;56.064;26.178;2023-06-26T09:26:21;22.70;75.10
64226;DHT22;50545;56.064;26.178;2023-06-26T09:28:49;23.10;68.30
64226;DHT22;50545;56.064;26.178;2023-06-26T09:31:17;23.30;71.90
64226;DHT22;50545;56.064;26.178;2023-06-26T09:34:04;23.50;66.30
64226;DHT22;50545;56.064;26.178;2023-06-26T09:36:32;23.40;65.00
64226;DHT22;50545;56.064;26.178;2023-06-26T09:39:05;23.10;66.80
64226;DHT22;50545;56.064;26.178;2023-06-26T09:41:35;22.90;66.40
64226;DHT22;50545;56.064;26.178;2023-06-26T09:44:03;23.10;66.90
64226;DHT22;50545;56.064;26.178;2023-06-26T09:46:30;23.20;65.90
64226;DHT22;50545;56.064;26.178;2023-06-26T09:49:09;23.20;63.50
64226;DHT22;50545;56.064;26.178;2023-06-26T09:51:41;23.40;61.30
64226;DHT22;50545;56.064;26.178;2023-06-26T09:54:09;23.60;61.90
64226;DHT22;50545;56.064;26.178;2023-06-26T09:56:36;23.80;59.10
64226;DHT22;50545;56.064;26.178;2023-06-26T09:59:05;24.10;61.80
64226;DHT22;50545;56.064;26.178;2023-06-26T10:01:33;24.40;59.40
64226;DHT22;50545;56.064;26.178;2023-06-26T10:04:01;24.60;61.00
64226;DHT22;50545;56.064;26.178;2023-06-26T10:06:35;24.80;58.40
64226;DHT22;50545;56.064;26.178;2023-06-26T10:09:03;25.00;57.40
64226;DHT22;50545;56.064;26.178;2023-06-26T10:11:41;25.10;56.60
64226;DHT22;50545;56.064;26.178;2023-06-26T10:14:12;25.10;54.60
64226;DHT22;50545;56.064;26.178;2023-06-26T10:16:44;25.20;56.20
64226;DHT22;50545;56.064;26.178;2023-06-26T10:19:15;25.20;55.20
64226;DHT22;50545;56.064;26.178;2023-06-26T10:21:43;24.90;56.40
64226;DHT22;50545;56.064;26.178;2023-06-26T10:24:12;24.60;56.40
64226;DHT22;50545;56.064;26.178;2023-06-26T10:26:44;24.30;56.30
64226;DHT22;50545;56.064;26.178;2023-06-26T10:29:14;24.10;56.30
64226;DHT22;50545;56.064;26.178;2023-06-26T10:31:44;23.80;59.90
64226;DHT22;50545;56.064;26.178;2023-06-26T10:34:13;23.50;61.10
64226;DHT22;50545;56.064;26.178;2023-06-26T10:36:41;23.50;60.60
64226;DHT22;50545;56.064;26.178;2023-06-26T10:39:08;23.40;59.60
64226;DHT22;50545;56.064;26.178;2023-06-26T10:41:40;23.40;61.20
64226;DHT22;50545;56.064;26.178;2023-06-26T10:44:40;23.40;59.70
64226;DHT22;50545;56.064;26.178;2023-06-26T10:47:09;23.20;59.20
64226;DHT22;50545;56.064;26.178;2023-06-26T10:49:37;23.10;60.80
64226;DHT22;50545;56.064;26.178;2023-06-26T10:52:10;23.00;60.10
64226;DHT22;50545;56.064;26.178;2023-06-26T10:54:37;22.90;62.50
64226;DHT22;50545;56.064;26.178;2023-06-26T10:57:07;22.80;64.80
64226;DHT22;50545;56.064;26.178;2023-06-26T10:59:34;22.70;62.40
64226;DHT22;50545;56.064;26.178;2023-06-26T11:02:05;22.60;61.90
64226;DHT22;50545;56.064;26.178;2023-06-26T11:04:47;22.80;65.30
64226;DHT22;50545;56.064;26.178;2023-06-26T11:07:19;23.30;62.70
64226;DHT22;50545;56.064;26.178;2023-06-26T11:10:09;23.80;61.10
64226;DHT22;50545;56.064;26.178;2023-06-26T11:12:40;24.50;60.30
64226;DHT22;50545;56.064;26.178;2023-06-26T11:15:17;25.00;57.40
64226;DHT22;50545;56.064;26.178;2023-06-26T11:17:45;25.60;55.10
64226;DHT22;50545;56.064;26.178;2023-06-26T11:20:14;25.70;54.90
64226;DHT22;50545;56.064;26.178;2023-06-26T11:22:43;26.10;55.60
64226;DHT22;50545;56.064;26.178;2023-06-26T11:25:11;26.00;53.20
64226;DHT22;50545;56.064;26.178;2023-06-26T11:30:06;25.80;52.60
64226;DHT22;50545;56.064;26.178;2023-06-26T11:32:34;25.70;53.60
64226;DHT22;50545;56.064;26.178;2023-06-26T11:35:02;25.30;54.10
64226;DHT22;50545;56.064;26.178;2023-06-26T11:37:32;25.00;56.50
64226;DHT22;50545;56.064;26.178;2023-06-26T11:39:59;24.70;56.00
64226;DHT22;50545;56.064;26.178;2023-06-26T11:42:27;24.30;56.70
64226;DHT22;50545;56.064;26.178;2023-06-26T11:44:54;24.10;58.60
64226;DHT22;50545;56.064;26.178;2023-06-26T11:47:22;24.00;58.70
64226;DHT22;50545;56.064;26.178;2023-06-26T11:49:49;23.90;58.60
64226;DHT22;50545;56.064;26.178;2023-06-26T11:52:17;23.90;61.30
64226;DHT22;50545;56.064;26.178;2023-06-26T11:54:45;23.90;58.50
64226;DHT22;50545;56.064;26.178;2023-06-26T11:57:15;23.90;59.20
64226;DHT22;50545;56.064;26.178;2023-06-26T11:59:44;24.10;63.30
64226;DHT22;50545;56.064;26.178;2023-06-26T12:02:13;24.70;60.20
64226;DHT22;50545;56.064;26.178;2023-06-26T12:04:42;25.20;57.20
64226;DHT22;50545;56.064;26.178;2023-06-26T12:07:10;25.40;54.00
64226;DHT22;50545;56.064;26.178;2023-06-26T12:09:43;25.20;53.90
64226;DHT22;50545;56.064;26.178;2023-06-26T12:12:14;24.90;53.30
64226;DHT22;50545;56.064;26.178;2023-06-26T12:14:41;24.60;57.60
64226;DHT22;50545;56.064;26.178;2023-06-26T12:17:12;24.50;60.30
64226;DHT22;50545;56.064;26.178;2023-06-26T12:19:46;24.30;58.00
64226;DHT22;50545;56.064;26.178;2023-06-26T12:22:18;24.00;57.90
64226;DHT22;50545;56.064;26.178;2023-06-26T12:24:46;23.70;59.80
64226;DHT22;50545;56.064;26.178;2023-06-26T12:27:15;23.50;62.30
64226;DHT22;50545;56.064;26.178;2023-06-26T12:29:53;23.50;59.10
64226;DHT22;50545;56.064;26.178;2023-06-26T12:32:34;23.40;60.70
64226;DHT22;50545;56.064;26.178;2023-06-26T12:35:15;23.20;66.30
64226;DHT22;50545;56.064;26.178;2023-06-26T12:37:44;22.70;66.70
64226;DHT22;50545;56.064;26.178;2023-06-26T12:40:18;22.10;70.70
64226;DHT22;50545;56.064;26.178;2023-06-26T12:42:46;21.20;73.70
64226;DHT22;50545;56.064;26.178;2023-06-26T12:45:14;20.30;76.70
64226;DHT22;50545;56.064;26.178;2023-06-26T12:48:13;19.70;77.10
64226;DHT22;50545;56.064;26.178;2023-06-26T12:50:44;19.00;78.30
64226;DHT22;50545;56.064;26.178;2023-06-26T12:53:15;18.70;79.60
64226;DHT22;50545;56.064;26.178;2023-06-26T12:55:42;18.30;81.90
64226;DHT22;50545;56.064;26.178;2023-06-26T12:58:09;18.10;86.00
64226;DHT22;50545;56.064;26.178;2023-06-26T13:00:37;17.90;89.10
64226;DHT22;50545;56.064;26.178;2023-06-26T13:03:05;17.60;90.60
64226;DHT22;50545;56.064;26.178;2023-06-26T13:05:37;17.50;91.00
64226;DHT22;50545;56.064;26.178;2023-06-26T13:08:05;17.40;91.60
64226;DHT22;50545;56.064;26.178;2023-06-26T13:10:32;17.40;92.10
64226;DHT22;50545;56.064;26.178;2023-06-26T13:13:00;17.40;92.10
64226;DHT22;50545;56.064;26.178;2023-06-26T13:15:27;17.50;92.30
64226;DHT22;50545;56.064;26.178;2023-06-26T13:17:55;17.40;92.00
64226;DHT22;50545;56.064;26.178;2023-06-26T13:20:23;17.40;92.30
64226;DHT22;50545;56.064;26.178;2023-06-26T13:22:50;17.30;92.90
64226;DHT22;50545;56.064;26.178;2023-06-26T13:25:18;17.20;93.20
64226;DHT22;50545;56.064;26.178;2023-06-26T13:27:48;17.20;93.70
64226;DHT22;50545;56.064;26.178;2023-06-26T13:30:16;17.20;94.60
64226;DHT22;50545;56.064;26.178;2023-06-26T13:32:44;17.10;94.50
64226;DHT22;50545;56.064;26.178;2023-06-26T13:35:11;17.00;95.00
64226;DHT22;50545;56.064;26.178;2023-06-26T13:37:39;17.00;95.50
64226;DHT22;50545;56.064;26.178;2023-06-26T13:40:07;17.00;95.30
64226;DHT22;50545;56.064;26.178;2023-06-26T13:42:37;16.80;95.70
64226;DHT22;50545;56.064;26.178;2023-06-26T13:45:05;16.70;96.30
64226;DHT22;50545;56.064;26.178;2023-06-26T13:47:52;16.60;96.50
64226;DHT22;50545;56.064;26.178;2023-06-26T13:50:19;16.50;96.70
64226;DHT22;50545;56.064;26.178;2023-06-26T13:52:46;16.40;97.30
64226;DHT22;50545;56.064;26.178;2023-06-26T13:55:14;16.30;97.60
64226;DHT22;50545;56.064;26.178;2023-06-26T13:57:42;16.30;98.10
64226;DHT22;50545;56.064;26.178;2023-06-26T14:00:10;16.30;98.40
64226;DHT22;50545;56.064;26.178;2023-06-26T14:02:40;16.40;98.70
64226;DHT22;50545;56.064;26.178;2023-06-26T14:05:08;16.40;98.70
64226;DHT22;50545;56.064;26.178;2023-06-26T14:07:38;16.30;98.40
64226;DHT22;50545;56.064;26.178;2023-06-26T14:10:07;16.30;98.70
64226;DHT22;50545;56.064;26.178;2023-06-26T14:12:35;16.20;99.20
64226;DHT22;50545;56.064;26.178;2023-06-26T14:15:03;16.20;99.70
64226;DHT22;50545;56.064;26.178;2023-06-26T14:17:31;16.20;99.70
64226;DHT22;50545;56.064;26.178;2023-06-26T14:19:59;16.20;98.90
64226;DHT22;50545;56.064;26.178;2023-06-26T14:22:27;16.20;98.60
64226;DHT22;50545;56.064;26.178;2023-06-26T14:24:54;16.20;99.40
64226;DHT22;50545;56.064;26.178;2023-06-26T14:27:21;16.40;99.90
64226;DHT22;50545;56.064;26.178;2023-06-26T14:29:48;16.40;99.50
64226;DHT22;50545;56.064;26.178;2023-06-26T14:32:15;16.50;99.70
64226;DHT22;50545;56.064;26.178;2023-06-26T14:34:43;16.60;99.30
64226;DHT22;50545;56.064;26.178;2023-06-26T14:37:10;16.60;98.60
64226;DHT22;50545;56.064;26.178;2023-06-26T14:39:37;16.70;98.80
64226;DHT22;50545;56.064;26.178;2023-06-26T14:42:06;16.60;99.20
64226;DHT22;50545;56.064;26.178;2023-06-26T14:44:34;16.60;98.90
64226;DHT22;50545;56.064;26.178;2023-06-26T14:47:02;16.60;99.20
64226;DHT22;50545;56.064;26.178;2023-06-26T14:49:30;16.60;98.90
64226;DHT22;50545;56.064;26.178;2023-06-26T14:51:57;16.60;98.20
64226;DHT22;50545;56.064;26.178;2023-06-26T14:54:24;16.70;99.20
64226;DHT22;50545;56.064;26.178;2023-06-26T14:56:51;16.70;98.40
64226;DHT22;50545;56.064;26.178;2023-06-26T14:59:19;16.70;97.70
64226;DHT22;50545;56.064;26.178;2023-06-26T15:01:46;16.80;97.50
64226;DHT22;50545;56.064;26.178;2023-06-26T15:04:13;16.80;97.50
64226;DHT22;50545;56.064;26.178;2023-06-26T15:06:41;16.80;98.00
64226;DHT22;50545;56.064;26.178;2023-06-26T15:09:08;16.90;97.30
64226;DHT22;50545;56.064;26.178;2023-06-26T15:11:36;16.90;96.60
64226;DHT22;50545;56.064;26.178;2023-06-26T15:14:03;16.90;96.70
64226;DHT22;50545;56.064;26.178;2023-06-26T15:16:30;16.90;97.00
64226;DHT22;50545;56.064;26.178;2023-06-26T15:18:58;17.00;97.40
64226;DHT22;50545;56.064;26.178;2023-06-26T15:21:26;17.00;96.80
64226;DHT22;50545;56.064;26.178;2023-06-26T15:23:53;17.10;97.10
64226;DHT22;50545;56.064;26.178;2023-06-26T15:26:21;17.10;96.70
64226;DHT22;50545;56.064;26.178;2023-06-26T15:28:48;17.10;96.40
64226;DHT22;50545;56.064;26.178;2023-06-26T15:31:17;17.20;96.50
64226;DHT22;50545;56.064;26.178;2023-06-26T15:33:45;17.30;96.70